Lloydminister, Canada
Current Conditions -  °F | °C
As of 2:00 PM on Thursday 23 Oct 2014 (Local Time) from CYLL Reporting Station
Few Clouds Few Clouds  
Wind Chill: 64°   Ceiling: Unl
Heat Index: 64°   Visibility: 15mi
Dew Point: 36°   Wind: 20mph
Humidity: 34%   Direction: 220°SW
Pressure: 29.41"   Gusts: 25mph
Location:  53.32°N, 110.07°W
Report Text: CYLL 232000Z 22017G22KT 15SM FEW100 FEW270 18/02 A2941 RMK AC1CI1 SLP971 DENSITY ALT 3600FT
Loading
Personal Weather Stations






























Interactive Weather Map
Tropical Storm Tracking
New forecast layout! Learn more

10-Day Weather Forecast

Advertisements
Track Severe Weather on mobile